Skip to main content

NOAA/GLERL Met Station at Chicago, IL

Previous 3 Hours (2 minute increments)
See also Previous 5 Days (top of hour)
Jump down to Data
Switch to [English][Metric]
Zoom: Click and drag, Pan: shift-click and drag, Unzoom: double-click, Unzoom All




See also 1-day windrose plot


NOAA/GLERL Met Station at Chicago, IL

Previous 3 Hours (2 minute increments)
See also Previous 5 Days (top of hour only)
Jump up to Graphs
Switch to [English][Metric]
                  Wind  Wind  Wind   Air   Dew   Rel
                   Spd   Gst   Dir  Temp    Pt   Hum
YYYY-MM-DD   CST   kts   kts   deg     F     F     %
2020-01-22 10:20  20.8  23.1   210  28.0  21.2  75.2
2020-01-22 10:18  19.8  23.1   209  28.0  21.3  75.5
2020-01-22 10:16  19.4  21.6   206  27.9  21.0  75.3
2020-01-22 10:14  21.2  22.6   204  27.9  20.9  74.9
2020-01-22 10:12  22.0  23.3   204  27.9  20.9  74.7
2020-01-22 10:10  21.6  23.7   205  27.9  21.0  75.3
2020-01-22 10:08  20.8  23.7   203  27.9  21.3  76.0
2020-01-22 10:06  20.6  22.2   206  27.7  21.1  75.9
2020-01-22 10:04  21.0  23.1   203  27.7  21.3  76.7
2020-01-22 10:02  20.0  22.4   205  27.7  21.1  75.9
2020-01-22 10:00  21.8  24.5   206  27.5  20.5  74.8
2020-01-22 09:58  21.0  23.5   205  27.5  20.8  75.8
2020-01-22 09:56  21.8  23.7   205  27.5  21.0  76.3
2020-01-22 09:54  21.6  25.3   204  27.5  21.4  77.7
2020-01-22 09:52  20.4  21.8   208  27.3  20.8  76.3
2020-01-22 09:50  19.4  22.2   206  27.5  21.1  76.6
2020-01-22 09:48  20.6  23.5   207  27.5  21.1  76.6
2020-01-22 09:46  22.4  25.3   206  27.3  21.0  77.0
2020-01-22 09:44  19.2  21.0   204  27.1  21.2  78.2
2020-01-22 09:42  20.8  22.9   207  27.1  20.6  76.2
2020-01-22 09:40  20.4  24.1   205  27.1  21.3  78.5
2020-01-22 09:38  19.4  21.8   203  27.1  21.3  78.5
2020-01-22 09:36  18.3  20.0   206  27.1  21.5  79.2
2020-01-22 09:34  19.1  20.0   204  27.1  21.7  79.6
2020-01-22 09:32  19.6  21.0   205  27.0  21.0  78.0
2020-01-22 09:30  21.0  22.7   207  27.0  20.9  77.7
2020-01-22 09:28  19.1  21.2   209  27.1  21.8  80.0
2020-01-22 09:26  20.6  23.1   207  27.0  21.4  79.3
2020-01-22 09:24  21.0  23.9   205  27.0  21.3  78.9
2020-01-22 09:22  20.0  22.6   206  27.0  21.2  78.8
2020-01-22 09:20  21.4  23.1   203  27.0  21.5  79.6
2020-01-22 09:18  18.3  20.2   202  26.8  21.1  79.0
2020-01-22 09:16  21.0  22.9   200  26.6  20.6  78.0
2020-01-22 09:14  20.0  21.8   203  26.8  21.1  79.0
2020-01-22 09:12  20.8  23.7   202  26.8  21.4  79.8
2020-01-22 09:10  17.9  20.4   201  26.8  21.7  80.9
2020-01-22 09:08  20.2  22.4   208  26.6  20.6  78.0
2020-01-22 09:06  20.6  24.9   207  26.8  21.2  79.2
2020-01-22 09:04  19.4  22.9   206  26.6  21.0  79.2
2020-01-22 09:02  21.0  23.3   206  26.4  20.8  79.0
2020-01-22 09:00  18.9  21.2   205  26.4  21.0  79.9
2020-01-22 08:58  19.2  20.6   205  26.4  21.0  79.9
2020-01-22 08:56  19.1  23.3   202  26.4  21.2  80.3
2020-01-22 08:54  17.3  18.9   207  26.4  21.2  80.3
2020-01-22 08:52  17.7  19.4   206  26.2  21.2  80.9
2020-01-22 08:50  17.1  18.9   206  26.2  21.0  80.4
2020-01-22 08:48  17.5  20.2   206  26.4  21.6  81.7
2020-01-22 08:46  16.7  20.6   210  26.2  21.2  80.9
2020-01-22 08:44  17.5  20.4   207  26.4  21.5  81.5
2020-01-22 08:42  16.1  18.3   209  26.4  21.9  82.8
2020-01-22 08:40  15.9  17.3   205  26.4  21.8  82.4
2020-01-22 08:38  15.9  17.7   205  26.4  22.0  83.1
2020-01-22 08:36  16.9  19.2   202  26.2  21.3  81.4
2020-01-22 08:34  17.9  22.2   204  26.1  21.0  81.1
2020-01-22 08:32  16.9  18.9   202  26.1  21.1  81.4
2020-01-22 08:30  15.4  18.9   206  26.2  21.4  81.8
2020-01-22 08:28  15.9  18.7   208  26.2  21.5  82.1
2020-01-22 08:26  15.4  17.1   208  26.1  21.4  82.2
2020-01-22 08:24  15.9  17.1   205  26.1  21.2  81.8
2020-01-22 08:22  16.9  20.4   204  26.1  21.3  81.9
2020-01-22 08:20  16.3  18.1   202  26.1  21.1  81.2
2020-01-22 08:18  18.1  20.6   207  26.1  21.0  80.8
2020-01-22 08:16  18.3  21.0   202  26.1  21.1  81.3
2020-01-22 08:14  20.0  22.2   201  25.9  20.9  81.1
2020-01-22 08:12  16.3  18.9   201  26.1  21.3  82.0
2020-01-22 08:10  17.1  19.6   203  25.9  21.1  81.8
2020-01-22 08:08  16.1  18.3   204  26.1  21.4  82.3
2020-01-22 08:06  16.3  18.5   203  26.1  21.4  82.3
2020-01-22 08:04  15.7  18.1   205  25.9  21.0  81.7
2020-01-22 08:02  17.3  20.0   208  25.9  20.9  81.3
2020-01-22 08:00  16.9  19.4   211  26.1  21.3  82.0
2020-01-22 07:58  18.1  20.8   211  25.9  20.8  80.9
2020-01-22 07:56  16.9  20.0   212  26.1  21.3  82.0
2020-01-22 07:54  15.0  17.9   213  26.1  21.3  82.0
2020-01-22 07:52  17.7  19.2   209  26.1  21.4  82.4
2020-01-22 07:50  16.1  18.3   213  25.9  20.8  81.0
2020-01-22 07:48  17.9  19.8   209  26.1  20.8  80.3
2020-01-22 07:46  21.4  25.5   207  26.1  21.1  81.2
2020-01-22 07:44  18.5  21.0   206  26.2  21.6  82.4
2020-01-22 07:42  16.7  19.1   209  26.1  21.5  82.6
2020-01-22 07:40  17.7  20.6   209  26.1  21.3  82.1
2020-01-22 07:38  18.9  20.6   205  25.9  20.8  80.9
2020-01-22 07:36  18.5  21.8   205  26.1  21.2  81.8
2020-01-22 07:34  18.7  21.0   202  25.9  21.0  81.6
2020-01-22 07:32  20.6  22.2   205  25.9  20.8  80.7
2020-01-22 07:30  19.6  22.2   203  25.9  21.0  81.5
2020-01-22 07:28  18.5  20.6   206  25.7  20.7  81.1
2020-01-22 07:26  18.7  21.6   205  26.1  21.4  82.3
2020-01-22 07:24  17.3  20.4   204  26.1  21.5  82.6
2020-01-22 07:22  17.7  20.6   208  26.1  21.4  82.2
2020-01-22 07:20  19.8  21.8   206  25.9  20.8  80.9